Franconia, Minnesota
Current Conditions -  °F | °C
As of 1:35 PM on Monday 22 Dec 2014 (Local Time) from KOEO Reporting Station
Light Rain Light Rain  
Wind Chill: 27°   Ceiling: 700
Heat Index: 36°   Visibility: 2mi
Dew Point: 36°   Wind: 13mph
Humidity: 100%   Direction: 110°ESE
Pressure: 29.65"   Gusts: NA
Location:  45.3892°N, 92.7331°W
Report Text: KOEO 221935Z AUTO 11011KT 2SM -RA OVC007 02/02 A2965 RMK AO2 T00210021
Loading
Personal Weather Stations






























Interactive Weather Map New forecast layout! Learn more

10-Day Weather Forecast

Advertisements
Track Severe Weather on mobile